Time;durP1;ratioP1;P1;durP2;ratioP2;P2;SDS_P1;SDS_P2;PMS_P1;PMS_P2;Temp;Humidity;BMP_temperature;BMP_pressure;BME280_temperature;BME280_humidity;BME280_pressure;Samples;Min_cycle;Max_cycle;Signal;HPM_P1;HPM_P2
2023/12/27 00:04:36;;;;;;;3.33;1.95;;;;;;;;;;10361224;28;20056;-74
2023/12/27 00:09:39;;;;;;;4.15;2.30;;;;;;;;;;10359333;28;20069;-74
2023/12/27 00:14:42;;;;;;;4.05;2.40;;;;;;;;;;10358808;28;20038;-74
2023/12/27 00:19:47;;;;;;;4.15;2.38;;;;;;;;;;10358094;28;20054;-74
2023/12/27 00:24:50;;;;;;;4.45;2.40;;;;;;;;;;10358842;28;20044;-75
2023/12/27 00:29:53;;;;;;;4.88;2.28;;;;;;;;;;10340938;28;20054;-74
2023/12/27 00:34:58;;;;;;;5.75;2.85;;;;;;;;;;10358557;28;20541;-74
2023/12/27 00:40:01;;;;;;;4.47;2.28;;;;;;;;;;10342552;28;20130;-74
2023/12/27 00:45:05;;;;;;;3.80;1.83;;;;;;;;;;10342298;28;20169;-74
2023/12/27 00:50:10;;;;;;;2.95;1.60;;;;;;;;;;10356756;28;20157;-74
2023/12/27 00:55:14;;;;;;;3.65;1.90;;;;;;;;;;10358648;28;20038;-74
2023/12/27 01:00:17;;;;;;;2.58;1.50;;;;;;;;;;10356499;28;20058;-74
2023/12/27 01:05:23;;;;;;;4.32;2.05;;;;;;;;;;10339991;28;20037;-74
2023/12/27 01:10:26;;;;;;;1.77;1.13;;;;;;;;;;10357587;28;20060;-74
2023/12/27 01:15:29;;;;;;;2.83;1.63;;;;;;;;;;10339058;28;20038;-74
2023/12/27 01:20:34;;;;;;;2.70;1.30;;;;;;;;;;10357223;28;20050;-74
2023/12/27 01:25:37;;;;;;;2.55;1.40;;;;;;;;;;10340340;28;20037;-73
2023/12/27 01:30:40;;;;;;;2.92;1.60;;;;;;;;;;10334509;28;20041;-74
2023/12/27 01:35:45;;;;;;;2.42;1.17;;;;;;;;;;10338687;28;20530;-73
2023/12/27 01:40:49;;;;;;;2.40;1.27;;;;;;;;;;10339754;28;20100;-74
2023/12/27 01:45:53;;;;;;;3.08;1.50;;;;;;;;;;10357719;28;20905;-74
2023/12/27 01:50:59;;;;;;;2.05;1.02;;;;;;;;;;10356152;28;20050;-74
2023/12/27 01:56:03;;;;;;;2.10;1.23;;;;;;;;;;10357270;28;20472;-73
2023/12/27 02:01:06;;;;;;;4.40;1.80;;;;;;;;;;10340217;28;20128;-73
2023/12/27 02:06:12;;;;;;;3.17;1.52;;;;;;;;;;10339465;28;20077;-74
2023/12/27 02:11:16;;;;;;;3.35;1.45;;;;;;;;;;10340627;28;20049;-74
2023/12/27 02:16:21;;;;;;;3.65;1.60;;;;;;;;;;10341361;28;20049;-74
2023/12/27 02:21:26;;;;;;;3.45;1.50;;;;;;;;;;10347822;28;20037;-74
2023/12/27 02:26:32;;;;;;;2.08;1.08;;;;;;;;;;10360690;28;20491;-74
2023/12/27 02:31:35;;;;;;;2.17;1.10;;;;;;;;;;10366319;28;20702;-74
2023/12/27 02:36:38;;;;;;;4.30;1.50;;;;;;;;;;10357703;28;20556;-73
2023/12/27 02:41:43;;;;;;;2.60;1.15;;;;;;;;;;10351530;28;20558;-73
2023/12/27 02:46:46;;;;;;;3.05;1.30;;;;;;;;;;10353465;28;20056;-73
2023/12/27 02:51:51;;;;;;;4.70;1.30;;;;;;;;;;10350419;28;20061;-74
2023/12/27 02:56:56;;;;;;;2.05;1.05;;;;;;;;;;10364420;28;20048;-74
2023/12/27 03:01:59;;;;;;;3.47;1.35;;;;;;;;;;10347453;28;20133;-74
2023/12/27 03:07:03;;;;;;;2.15;1.10;;;;;;;;;;10347917;28;20056;-74
2023/12/27 03:12:08;;;;;;;2.45;1.02;;;;;;;;;;10344897;28;20046;-74
2023/12/27 03:17:11;;;;;;;2.33;1.15;;;;;;;;;;10361742;28;20156;-73
2023/12/27 03:22:14;;;;;;;3.63;1.02;;;;;;;;;;10350494;28;20041;-73
2023/12/27 03:27:19;;;;;;;1.60;0.82;;;;;;;;;;10366310;28;20058;-73
2023/12/27 03:32:24;;;;;;;2.92;1.60;;;;;;;;;;10350744;28;20569;-73
2023/12/27 03:37:27;;;;;;;3.33;1.40;;;;;;;;;;10366991;28;20534;-74
2023/12/27 03:42:32;;;;;;;2.28;1.42;;;;;;;;;;10367648;28;20045;-74
2023/12/27 03:47:35;;;;;;;2.38;1.30;;;;;;;;;;10348323;28;20622;-74
2023/12/27 03:52:39;;;;;;;2.55;1.08;;;;;;;;;;10358606;28;20633;-74
2023/12/27 03:57:43;;;;;;;4.25;1.10;;;;;;;;;;10346125;28;20549;-74
2023/12/27 04:02:47;;;;;;;3.33;0.98;;;;;;;;;;10359553;28;20530;-73
2023/12/27 04:07:50;;;;;;;1.35;0.85;;;;;;;;;;10359759;28;20057;-74
2023/12/27 04:12:55;;;;;;;2.28;1.13;;;;;;;;;;10360345;28;20050;-74
2023/12/27 04:17:58;;;;;;;2.80;1.10;;;;;;;;;;10360061;28;20149;-74
2023/12/27 04:23:02;;;;;;;1.60;0.95;;;;;;;;;;10358938;28;20057;-74
2023/12/27 04:28:06;;;;;;;1.65;1.10;;;;;;;;;;10359901;28;20105;-73
2023/12/27 04:33:10;;;;;;;3.20;1.30;;;;;;;;;;10340086;28;20070;-74
2023/12/27 04:38:13;;;;;;;2.22;1.10;;;;;;;;;;10341518;28;20037;-74
2023/12/27 04:43:18;;;;;;;2.28;1.67;;;;;;;;;;10341750;28;20050;-74
2023/12/27 04:48:21;;;;;;;2.03;1.10;;;;;;;;;;10358702;28;20122;-74
2023/12/27 04:53:25;;;;;;;2.38;1.10;;;;;;;;;;10340005;28;20052;-74
2023/12/27 04:58:29;;;;;;;2.13;0.93;;;;;;;;;;10340429;28;20451;-74
2023/12/27 05:03:34;;;;;;;2.63;1.15;;;;;;;;;;10358702;28;20053;-74
2023/12/27 05:08:40;;;;;;;2.05;1.15;;;;;;;;;;10361268;28;20042;-74
2023/12/27 05:13:45;;;;;;;2.78;1.23;;;;;;;;;;10357955;28;20050;-74
2023/12/27 05:18:48;;;;;;;2.78;1.58;;;;;;;;;;10350490;28;20045;-73
2023/12/27 05:23:51;;;;;;;2.97;1.70;;;;;;;;;;10358040;28;20096;-74
2023/12/27 05:28:56;;;;;;;1.48;1.38;;;;;;;;;;10357770;28;20042;-73
2023/12/27 05:33:59;;;;;;;1.85;1.52;;;;;;;;;;10358141;28;20054;-74
2023/12/27 05:39:03;;;;;;;2.25;1.50;;;;;;;;;;10357312;28;20070;-73
2023/12/27 05:44:08;;;;;;;1.50;1.40;;;;;;;;;;10360648;28;20258;-73
2023/12/27 05:49:11;;;;;;;2.10;1.38;;;;;;;;;;10359880;28;20433;-73
2023/12/27 05:54:15;;;;;;;2.00;1.60;;;;;;;;;;10362508;28;20136;-74
2023/12/27 05:59:19;;;;;;;2.42;1.63;;;;;;;;;;10362146;28;20125;-74
2023/12/27 06:04:23;;;;;;;2.45;1.40;;;;;;;;;;10369633;28;20711;-74
2023/12/27 06:09:26;;;;;;;1.27;1.13;;;;;;;;;;10368196;28;20041;-73
2023/12/27 06:14:31;;;;;;;3.92;1.95;;;;;;;;;;10364556;28;20761;-74
2023/12/27 06:19:35;;;;;;;2.10;1.90;;;;;;;;;;10361573;28;20045;-74
2023/12/27 06:24:40;;;;;;;3.75;1.52;;;;;;;;;;10363892;28;20541;-74
2023/12/27 06:29:44;;;;;;;3.85;2.20;;;;;;;;;;10361204;28;20152;-74
2023/12/27 06:34:47;;;;;;;3.80;2.38;;;;;;;;;;10368018;28;20060;-73
2023/12/27 06:39:51;;;;;;;2.00;1.80;;;;;;;;;;10361882;28;20124;-73
2023/12/27 06:44:55;;;;;;;2.33;1.67;;;;;;;;;;10363244;28;20855;-74
2023/12/27 06:49:59;;;;;;;2.88;1.65;;;;;;;;;;10364568;28;20049;-74
2023/12/27 06:55:02;;;;;;;1.92;1.60;;;;;;;;;;10364368;28;20049;-74
2023/12/27 07:00:08;;;;;;;2.33;1.95;;;;;;;;;;10366579;28;20042;-74
2023/12/27 07:05:14;;;;;;;2.65;1.80;;;;;;;;;;10358924;28;20064;-73
2023/12/27 07:10:17;;;;;;;2.22;1.92;;;;;;;;;;10356827;28;20088;-74
2023/12/27 07:15:21;;;;;;;2.20;1.58;;;;;;;;;;10361238;28;20046;-74
2023/12/27 07:20:25;;;;;;;2.25;1.77;;;;;;;;;;10341593;28;20061;-74
2023/12/27 07:25:28;;;;;;;2.80;2.00;;;;;;;;;;10355186;28;20042;-74
2023/12/27 07:30:32;;;;;;;2.60;1.70;;;;;;;;;;10341932;28;20415;-73
2023/12/27 07:35:36;;;;;;;3.03;2.28;;;;;;;;;;10356368;28;20042;-74
2023/12/27 07:40:39;;;;;;;2.40;2.20;;;;;;;;;;10346959;28;20403;-74
2023/12/27 07:45:44;;;;;;;3.90;2.70;;;;;;;;;;10357348;28;20050;-74
2023/12/27 07:50:47;;;;;;;5.45;2.97;;;;;;;;;;10343794;28;20052;-74
2023/12/27 07:55:51;;;;;;;3.33;2.40;;;;;;;;;;10353784;28;20057;-73
2023/12/27 08:00:55;;;;;;;3.78;2.63;;;;;;;;;;10363132;28;20046;-74
2023/12/27 08:05:58;;;;;;;2.25;1.90;;;;;;;;;;10360200;28;20050;-73
2023/12/27 08:11:04;;;;;;;2.80;1.85;;;;;;;;;;10365563;28;20472;-73
2023/12/27 08:16:09;;;;;;;3.50;2.72;;;;;;;;;;10359772;28;20042;-74
2023/12/27 08:21:12;;;;;;;5.88;2.80;;;;;;;;;;10330001;28;20622;-73
2023/12/27 08:26:15;;;;;;;3.00;2.40;;;;;;;;;;10342190;28;20049;-73
2023/12/27 08:31:20;;;;;;;3.75;2.10;;;;;;;;;;10353313;28;20388;-73
2023/12/27 08:36:23;;;;;;;4.07;2.53;;;;;;;;;;10340483;28;20054;-73
2023/12/27 08:41:26;;;;;;;2.65;1.98;;;;;;;;;;10345130;28;20042;-74
2023/12/27 08:46:31;;;;;;;1.48;1.30;;;;;;;;;;10357908;28;20054;-74
2023/12/27 08:51:35;;;;;;;2.05;1.80;;;;;;;;;;10359498;28;20048;-73
2023/12/27 08:56:38;;;;;;;3.50;1.98;;;;;;;;;;10341495;28;20046;-74
2023/12/27 09:01:42;;;;;;;2.05;1.60;;;;;;;;;;10355200;28;20064;-73
2023/12/27 09:06:46;;;;;;;1.42;1.30;;;;;;;;;;10358784;28;20050;-73
2023/12/27 09:11:49;;;;;;;1.35;1.15;;;;;;;;;;10360978;28;20053;-73
2023/12/27 09:16:54;;;;;;;2.53;1.33;;;;;;;;;;10377505;23;20559;-75
2023/12/27 09:21:57;;;;;;;1.05;0.93;;;;;;;;;;10377614;28;20122;-75
2023/12/27 09:27:03;;;;;;;2.33;1.27;;;;;;;;;;10372184;28;20100;-74
2023/12/27 09:32:08;;;;;;;1.73;1.20;;;;;;;;;;10383579;28;20620;-74
2023/12/27 09:37:11;;;;;;;1.65;1.20;;;;;;;;;;10376603;28;20293;-75
2023/12/27 09:42:15;;;;;;;4.43;1.45;;;;;;;;;;10381019;28;20402;-75
2023/12/27 09:47:22;;;;;;;1.40;1.15;;;;;;;;;;10373236;28;20049;-75
2023/12/27 09:52:25;;;;;;;0.80;0.80;;;;;;;;;;10384117;28;20041;-75
2023/12/27 09:57:29;;;;;;;1.40;0.80;;;;;;;;;;10381633;28;20049;-74
2023/12/27 10:02:36;;;;;;;1.15;0.98;;;;;;;;;;10383006;28;20038;-75
2023/12/27 10:07:40;;;;;;;1.33;0.98;;;;;;;;;;10385821;28;20045;-75
2023/12/27 10:12:44;;;;;;;1.17;0.90;;;;;;;;;;10379988;28;20068;-75
2023/12/27 10:17:49;;;;;;;0.70;0.70;;;;;;;;;;10389219;28;20060;-75
2023/12/27 10:22:52;;;;;;;1.15;0.77;;;;;;;;;;10369151;28;20096;-75
2023/12/27 10:27:56;;;;;;;1.70;1.30;;;;;;;;;;10385515;28;20052;-73
2023/12/27 10:33:02;;;;;;;1.17;0.90;;;;;;;;;;10383221;28;20079;-73
2023/12/27 10:38:06;;;;;;;;;;;;;;;;;;10389669;28;20096;-75
2023/12/27 10:43:09;;;;;;;1.15;1.00;;;;;;;;;;10388550;28;19928;-75
2023/12/27 10:48:16;;;;;;;0.70;0.70;;;;;;;;;;10385749;28;20549;-75
2023/12/27 10:53:20;;;;;;;;;;;;;;;;;;10392279;28;20049;-74
2023/12/27 10:58:25;;;;;;;0.93;0.60;;;;;;;;;;10388231;28;19928;-75
2023/12/27 11:03:33;;;;;;;2.35;0.68;;;;;;;;;;10391481;28;20124;-75
2023/12/27 11:08:38;;;;;;;0.73;0.70;;;;;;;;;;10383567;28;20052;-75
2023/12/27 11:13:45;;;;;;;1.30;0.80;;;;;;;;;;10387696;28;20044;-75
2023/12/27 11:18:53;;;;;;;1.35;0.73;;;;;;;;;;10390370;28;20052;-75
2023/12/27 11:23:56;;;;;;;0.75;0.50;;;;;;;;;;10393980;28;20592;-75
2023/12/27 11:29:01;;;;;;;2.22;0.88;;;;;;;;;;10389280;28;20840;-75
2023/12/27 11:34:06;;;;;;;1.98;1.08;;;;;;;;;;10384275;28;20056;-75
2023/12/27 11:39:18;;;;;;;1.27;0.95;;;;;;;;;;10387205;28;20053;-74
2023/12/27 11:44:21;;;;;;;1.40;1.02;;;;;;;;;;10389785;28;20103;-75
2023/12/27 11:49:27;;;;;;;3.30;1.52;;;;;;;;;;10388417;28;20041;-75
2023/12/27 11:54:30;;;;;;;;;;;;;;;;;;10381990;28;20514;-75
2023/12/27 11:59:34;;;;;;;1.02;0.73;;;;;;;;;;10387379;28;20471;-75
2023/12/27 12:04:52;;;;;;;0.80;0.70;;;;;;;;;;10384658;28;20434;-75
2023/12/27 12:09:56;;;;;;;0.80;0.70;;;;;;;;;;10389548;28;20049;-75
2023/12/27 12:15:00;;;;;;;2.10;0.80;;;;;;;;;;10378068;28;20045;-75
2023/12/27 12:20:05;;;;;;;1.52;1.02;;;;;;;;;;10386196;28;20044;-74
2023/12/27 12:25:09;;;;;;;1.27;1.13;;;;;;;;;;10388734;28;20124;-75
2023/12/27 12:30:13;;;;;;;2.85;1.10;;;;;;;;;;10390659;28;20112;-75
2023/12/27 12:35:18;;;;;;;1.77;1.00;;;;;;;;;;10376102;28;20176;-75
2023/12/27 12:40:22;;;;;;;1.23;0.77;;;;;;;;;;10388211;28;20038;-75
2023/12/27 12:45:26;;;;;;;1.15;1.00;;;;;;;;;;10380558;28;20053;-75
2023/12/27 12:50:30;;;;;;;2.80;1.40;;;;;;;;;;10390481;28;20141;-75
2023/12/27 12:55:34;;;;;;;1.10;0.90;;;;;;;;;;10381946;28;20045;-74
2023/12/27 13:00:38;;;;;;;2.08;0.90;;;;;;;;;;10383795;28;20044;-75
2023/12/27 13:05:42;;;;;;;3.85;1.10;;;;;;;;;;10381278;28;20045;-75
2023/12/27 13:10:47;;;;;;;2.78;0.80;;;;;;;;;;10382671;28;20045;-75
2023/12/27 13:15:50;;;;;;;0.70;0.70;;;;;;;;;;10382914;28;20423;-75
2023/12/27 13:20:55;;;;;;;1.92;0.90;;;;;;;;;;10392832;28;20077;-75
2023/12/27 13:25:58;;;;;;;1.25;0.82;;;;;;;;;;10386537;28;20049;-75
2023/12/27 13:31:02;;;;;;;2.20;0.90;;;;;;;;;;10388375;28;20071;-76
2023/12/27 13:36:08;;;;;;;0.98;0.60;;;;;;;;;;10399050;28;20526;-75
2023/12/27 13:41:11;;;;;;;1.93;0.80;;;;;;;;;;10390401;28;20115;-75
2023/12/27 13:46:15;;;;;;;2.28;0.90;;;;;;;;;;10385191;28;20041;-74
2023/12/27 13:51:20;;;;;;;2.35;1.00;;;;;;;;;;10389771;28;20048;-75
2023/12/27 13:56:23;;;;;;;2.00;0.80;;;;;;;;;;10397958;28;20410;-75
2023/12/27 14:01:26;;;;;;;1.50;0.80;;;;;;;;;;10391895;28;20042;-75
2023/12/27 14:06:31;;;;;;;2.22;0.73;;;;;;;;;;10388910;28;20048;-75
2023/12/27 14:11:34;;;;;;;4.30;1.08;;;;;;;;;;10383805;28;20057;-75
2023/12/27 14:16:41;;;;;;;2.53;0.98;;;;;;;;;;10396191;28;20047;-75
2023/12/27 14:21:46;;;;;;;1.50;0.98;;;;;;;;;;10386343;28;20357;-75
2023/12/27 14:26:49;;;;;;;2.08;0.90;;;;;;;;;;10398312;28;20072;-74
2023/12/27 14:31:52;;;;;;;1.58;0.80;;;;;;;;;;10402369;28;20080;-75
2023/12/27 14:36:57;;;;;;;2.50;1.20;;;;;;;;;;10395790;28;20053;-75
2023/12/27 14:42:00;;;;;;;2.22;1.10;;;;;;;;;;10379861;28;20060;-75
2023/12/27 14:47:04;;;;;;;1.95;0.93;;;;;;;;;;10398919;28;20052;-75
2023/12/27 14:52:09;;;;;;;1.73;1.02;;;;;;;;;;10391216;28;20049;-75
2023/12/27 14:57:14;;;;;;;4.40;1.83;;;;;;;;;;10398194;28;20491;-75
2023/12/27 15:02:18;;;;;;;3.00;1.75;;;;;;;;;;10395925;28;20037;-75
2023/12/27 15:07:22;;;;;;;2.95;1.42;;;;;;;;;;10385658;28;20046;-74
2023/12/27 15:12:27;;;;;;;2.20;1.40;;;;;;;;;;10399213;28;20088;-75
2023/12/27 15:17:31;;;;;;;2.40;1.45;;;;;;;;;;10399492;23;20113;-73
2023/12/27 15:22:35;;;;;;;2.70;1.65;;;;;;;;;;10399592;28;20439;-73
2023/12/27 15:27:40;;;;;;;4.20;1.88;;;;;;;;;;10402809;28;20379;-74
2023/12/27 15:32:43;;;;;;;3.53;1.73;;;;;;;;;;10399714;28;20570;-73
2023/12/27 15:37:48;;;;;;;2.50;1.70;;;;;;;;;;10401825;28;20136;-73
2023/12/27 15:42:52;;;;;;;3.38;1.73;;;;;;;;;;10399438;28;20053;-73
2023/12/27 15:47:55;;;;;;;2.70;1.40;;;;;;;;;;10383298;28;20050;-75
2023/12/27 15:53:00;;;;;;;5.00;2.05;;;;;;;;;;10404157;28;20449;-73
2023/12/27 15:58:03;;;;;;;4.78;2.58;;;;;;;;;;10402072;28;20048;-73
2023/12/27 16:03:07;;;;;;;5.07;2.13;;;;;;;;;;10402511;28;20406;-73
2023/12/27 16:08:11;;;;;;;4.03;1.50;;;;;;;;;;10402151;28;20791;-73
2023/12/27 16:13:15;;;;;;;2.42;1.25;;;;;;;;;;10402654;28;20049;-73
2023/12/27 16:18:18;;;;;;;3.35;1.50;;;;;;;;;;10384938;28;20041;-73
2023/12/27 16:23:23;;;;;;;3.17;1.17;;;;;;;;;;10379771;28;20061;-73
2023/12/27 16:28:26;;;;;;;2.67;1.30;;;;;;;;;;10389961;28;20042;-73
2023/12/27 16:33:30;;;;;;;3.53;1.90;;;;;;;;;;10376971;28;20064;-73
2023/12/27 16:38:34;;;;;;;4.45;1.73;;;;;;;;;;10397506;28;20502;-73
2023/12/27 16:43:42;;;;;;;5.20;2.17;;;;;;;;;;10395963;28;20055;-73
2023/12/27 16:48:47;;;;;;;3.80;1.90;;;;;;;;;;10375205;28;20410;-73
2023/12/27 16:53:54;;;;;;;5.20;2.10;;;;;;;;;;10383666;28;20065;-73
2023/12/27 16:58:57;;;;;;;3.25;1.65;;;;;;;;;;10395240;28;20532;-73
2023/12/27 17:04:03;;;;;;;3.42;1.75;;;;;;;;;;10381931;28;20050;-73
2023/12/27 17:09:08;;;;;;;3.63;1.80;;;;;;;;;;10394291;28;20057;-73
2023/12/27 17:14:12;;;;;;;3.67;2.13;;;;;;;;;;10395102;28;20391;-73
2023/12/27 17:19:15;;;;;;;4.35;2.10;;;;;;;;;;10395737;28;20049;-73
2023/12/27 17:24:20;;;;;;;3.47;1.88;;;;;;;;;;10384826;28;20530;-73
2023/12/27 17:29:23;;;;;;;3.35;1.55;;;;;;;;;;10394446;28;20136;-73
2023/12/27 17:34:26;;;;;;;3.17;1.70;;;;;;;;;;10397926;28;20068;-73
2023/12/27 17:39:31;;;;;;;7.43;1.75;;;;;;;;;;10380123;28;20502;-73
2023/12/27 17:44:34;;;;;;;2.63;1.90;;;;;;;;;;10391829;28;20052;-73
2023/12/27 17:49:37;;;;;;;2.70;1.70;;;;;;;;;;10396637;28;20072;-73
2023/12/27 17:54:42;;;;;;;7.45;1.88;;;;;;;;;;10398087;28;20044;-73
2023/12/27 17:59:46;;;;;;;3.75;1.75;;;;;;;;;;10403702;28;20120;-74
2023/12/27 18:04:49;;;;;;;4.47;1.77;;;;;;;;;;10406116;28;20699;-73
2023/12/27 18:09:54;;;;;;;3.50;1.33;;;;;;;;;;10407859;28;20451;-73
2023/12/27 18:14:57;;;;;;;2.85;1.20;;;;;;;;;;10408875;28;20046;-73
2023/12/27 18:20:03;;;;;;;2.45;1.23;;;;;;;;;;10408613;28;20049;-73
2023/12/27 18:25:08;;;;;;;2.28;1.73;;;;;;;;;;10400411;28;20053;-74
2023/12/27 18:30:12;;;;;;;3.20;1.40;;;;;;;;;;10397949;28;20037;-73
2023/12/27 18:35:15;;;;;;;2.60;1.50;;;;;;;;;;10392500;28;20103;-73
2023/12/27 18:40:20;;;;;;;1.83;1.27;;;;;;;;;;10401846;28;20787;-73
2023/12/27 18:45:24;;;;;;;2.85;1.20;;;;;;;;;;10395700;28;20041;-73
2023/12/27 18:50:27;;;;;;;2.88;1.58;;;;;;;;;;10398705;28;20151;-73
2023/12/27 18:55:32;;;;;;;3.30;1.50;;;;;;;;;;10400257;28;20034;-73
2023/12/27 19:00:35;;;;;;;1.52;1.25;;;;;;;;;;10396973;28;20522;-73
2023/12/27 19:05:39;;;;;;;2.72;1.50;;;;;;;;;;10400975;28;20108;-73
2023/12/27 19:10:43;;;;;;;3.08;1.50;;;;;;;;;;10400878;28;20057;-73
2023/12/27 19:15:47;;;;;;;2.33;1.45;;;;;;;;;;10408083;28;20054;-73
2023/12/27 19:20:50;;;;;;;4.13;1.70;;;;;;;;;;10410808;28;20073;-73
2023/12/27 19:25:55;;;;;;;3.75;2.00;;;;;;;;;;10408237;28;20143;-73
2023/12/27 19:30:58;;;;;;;4.22;1.90;;;;;;;;;;10394833;28;20041;-73
2023/12/27 19:36:02;;;;;;;3.90;1.88;;;;;;;;;;10401128;28;20119;-73
2023/12/27 19:41:07;;;;;;;2.75;1.60;;;;;;;;;;10397577;28;20132;-73
2023/12/27 19:46:11;;;;;;;3.85;2.50;;;;;;;;;;10396510;28;20046;-73
2023/12/27 19:51:15;;;;;;;3.92;1.88;;;;;;;;;;10401005;28;20045;-73
2023/12/27 19:56:20;;;;;;;4.78;2.22;;;;;;;;;;10400334;28;20068;-73
2023/12/27 20:01:26;;;;;;;4.53;2.60;;;;;;;;;;10393892;28;20406;-73
2023/12/27 20:06:30;;;;;;;4.75;2.42;;;;;;;;;;10403907;28;20095;-73
2023/12/27 20:11:35;;;;;;;3.58;2.25;;;;;;;;;;10404600;28;20401;-74
2023/12/27 20:16:38;;;;;;;2.78;2.38;;;;;;;;;;10395001;28;20499;-74
2023/12/27 20:21:41;;;;;;;4.28;1.80;;;;;;;;;;10397288;28;20046;-73
2023/12/27 20:26:46;;;;;;;2.70;1.77;;;;;;;;;;10399647;28;20146;-73
2023/12/27 20:31:49;;;;;;;1.73;1.40;;;;;;;;;;10398443;28;20080;-73
2023/12/27 20:36:53;;;;;;;1.50;1.02;;;;;;;;;;10384289;28;20128;-73
2023/12/27 20:41:58;;;;;;;2.72;1.45;;;;;;;;;;10398933;28;20132;-74
2023/12/27 20:47:01;;;;;;;2.40;1.70;;;;;;;;;;10391695;28;20060;-74
2023/12/27 20:52:06;;;;;;;2.60;1.63;;;;;;;;;;10397812;28;20041;-74
2023/12/27 20:57:10;;;;;;;3.00;2.08;;;;;;;;;;10399113;28;20123;-73
2023/12/27 21:02:14;;;;;;;2.67;1.73;;;;;;;;;;10400372;28;20054;-73
2023/12/27 21:07:18;;;;;;;3.55;1.33;;;;;;;;;;10380962;28;20374;-73
2023/12/27 21:12:22;;;;;;;2.72;1.20;;;;;;;;;;10398660;28;20068;-73
2023/12/27 21:17:25;;;;;;;1.50;1.30;;;;;;;;;;10387616;23;20043;-75
2023/12/27 21:22:29;;;;;;;1.65;1.23;;;;;;;;;;10342740;28;20065;-75
2023/12/27 21:27:34;;;;;;;1.75;1.15;;;;;;;;;;10352634;28;20046;-75
2023/12/27 21:32:37;;;;;;;2.97;1.88;;;;;;;;;;10342126;28;20324;-75
2023/12/27 21:37:42;;;;;;;2.30;1.50;;;;;;;;;;10368398;28;20042;-75
2023/12/27 21:42:46;;;;;;;2.05;1.50;;;;;;;;;;10358702;28;20071;-75
2023/12/27 21:47:49;;;;;;;3.05;1.52;;;;;;;;;;10356996;28;20597;-75
2023/12/27 21:52:53;;;;;;;1.73;1.50;;;;;;;;;;10353762;28;20045;-75
2023/12/27 21:57:57;;;;;;;2.35;1.55;;;;;;;;;;10357486;28;20038;-75
2023/12/27 22:03:01;;;;;;;2.30;1.55;;;;;;;;;;10354801;28;20141;-75
2023/12/27 22:08:05;;;;;;;3.63;1.92;;;;;;;;;;10354944;28;20104;-74
2023/12/27 22:13:10;;;;;;;3.15;2.08;;;;;;;;;;10356111;28;20065;-75
2023/12/27 22:18:14;;;;;;;4.60;2.10;;;;;;;;;;10343908;28;20558;-74
2023/12/27 22:23:17;;;;;;;4.63;2.47;;;;;;;;;;10350520;28;20061;-75
2023/12/27 22:28:22;;;;;;;2.92;2.08;;;;;;;;;;10357812;28;20054;-75
2023/12/27 22:33:25;;;;;;;4.00;2.40;;;;;;;;;;10363290;28;20034;-75
2023/12/27 22:38:28;;;;;;;2.88;1.88;;;;;;;;;;10362543;28;20119;-75
2023/12/27 22:43:33;;;;;;;3.58;1.95;;;;;;;;;;10351250;28;20122;-75
2023/12/27 22:48:36;;;;;;;3.83;1.77;;;;;;;;;;10368800;28;20060;-75
2023/12/27 22:53:40;;;;;;;4.47;1.83;;;;;;;;;;10370803;28;20042;-75
2023/12/27 22:58:44;;;;;;;2.60;1.67;;;;;;;;;;10341847;28;20042;-75
2023/12/27 23:03:47;;;;;;;4.38;2.30;;;;;;;;;;10357003;28;20048;-75
2023/12/27 23:08:51;;;;;;;4.55;1.80;;;;;;;;;;10363415;28;20057;-75
2023/12/27 23:13:55;;;;;;;2.75;1.70;;;;;;;;;;10374985;28;20038;-75
2023/12/27 23:18:59;;;;;;;2.03;1.58;;;;;;;;;;10363164;28;20060;-75
2023/12/27 23:24:02;;;;;;;3.13;2.05;;;;;;;;;;10358099;28;20081;-74
2023/12/27 23:29:07;;;;;;;3.05;2.10;;;;;;;;;;10360271;28;20083;-74
2023/12/27 23:34:10;;;;;;;2.38;1.70;;;;;;;;;;10348785;28;20056;-75
2023/12/27 23:39:14;;;;;;;2.95;2.10;;;;;;;;;;10334807;28;20062;-75
2023/12/27 23:44:19;;;;;;;3.30;2.25;;;;;;;;;;10343319;28;20133;-75
2023/12/27 23:49:22;;;;;;;4.13;2.25;;;;;;;;;;10354568;28;20045;-75
2023/12/27 23:54:25;;;;;;;3.42;2.10;;;;;;;;;;10347699;28;20038;-75
2023/12/27 23:59:30;;;;;;;3.50;2.22;;;;;;;;;;10356838;28;20146;-75
